Time;durP1;ratioP1;P1;durP2;ratioP2;P2;SDS_P1;SDS_P2;PMS_P1;PMS_P2;Temp;Humidity;BMP_temperature;BMP_pressure;BME280_temperature;BME280_humidity;BME280_pressure;Samples;Min_cycle;Max_cycle;Signal;HPM_P1;HPM_P2
2022/04/10 00:01:09;;;;;;;3.00;2.40;;;;;;;2.16;67.69;99134.02;213424;1276;139365;-62
2022/04/10 00:06:15;;;;;;;6.10;3.30;;;;;;;2.12;67.39;99135.48;214815;1276;139394;-64
2022/04/10 00:11:18;;;;;;;7.10;3.20;;;;;;;2.04;67.63;99135.39;213661;1276;233556;-63
2022/04/10 00:16:22;;;;;;;6.10;3.10;;;;;;;1.97;67.66;99139.79;213280;1276;139246;-63
2022/04/10 00:21:25;;;;;;;3.30;2.40;;;;;;;1.91;67.68;99147.64;213047;1275;140420;-63
2022/04/10 00:26:28;;;;;;;6.60;3.30;;;;;;;1.83;68.12;99146.48;213719;1276;138656;-63
2022/04/10 00:31:30;;;;;;;5.10;3.20;;;;;;;1.80;68.28;99146.38;213577;1276;141745;-63
2022/04/10 00:36:34;;;;;;;5.80;2.70;;;;;;;1.80;68.39;99146.66;213787;1276;140357;-63
2022/04/10 00:41:36;;;;;;;7.80;3.50;;;;;;;1.84;68.29;99153.55;213833;1276;232484;-62
2022/04/10 00:46:39;;;;;;;4.70;3.00;;;;;;;1.83;68.55;99157.27;213345;1276;139935;-62
2022/04/10 00:51:46;;;;;;;6.10;2.70;;;;;;;1.77;68.82;99160.42;214127;1276;139989;-62
2022/04/10 00:56:50;;;;;;;6.60;2.00;;;;;;;1.69;69.16;99163.92;214879;1276;139514;-65
2022/04/10 01:01:52;;;;;;;6.10;2.50;;;;;;;1.63;69.00;99165.69;213691;1276;139913;-61
2022/04/10 01:07:16;;;;;;;5.40;3.30;;;;;;;1.55;69.28;99175.41;213672;1276;141034;-64
2022/04/10 01:12:19;;;;;;;7.80;4.10;;;;;;;1.49;69.22;99178.77;215735;1274;139806;-64
2022/04/10 01:17:23;;;;;;;6.30;4.40;;;;;;;1.47;69.30;99177.66;214421;1274;141455;-63
2022/04/10 01:22:33;;;;;;;9.10;4.30;;;;;;;1.49;69.51;99180.11;215754;1276;141016;-64
2022/04/10 01:27:41;;;;;;;6.00;3.60;;;;;;;1.52;69.66;99187.08;215990;1276;139764;-67
2022/04/10 01:32:44;;;;;;;5.90;3.70;;;;;;;1.52;69.97;99191.16;215164;1276;210331;-66
2022/04/10 01:37:50;;;;;;;4.80;3.80;;;;;;;1.50;69.88;99194.05;216008;1276;141026;-65
2022/04/10 01:42:53;;;;;;;14.70;5.80;;;;;;;1.44;69.90;99193.52;215732;1276;140484;-65
2022/04/10 01:47:55;;;;;;;14.20;5.20;;;;;;;1.41;69.87;99195.46;215981;1276;140824;-68
2022/04/10 01:52:58;;;;;;;24.80;13.60;;;;;;;1.40;69.84;99198.77;215601;1275;141066;-65
2022/04/10 01:58:00;;;;;;;19.90;13.90;;;;;;;1.37;69.74;99206.98;213386;1275;141159;-64
2022/04/10 02:03:04;;;;;;;8.30;7.10;;;;;;;1.33;70.23;99210.61;214092;1276;141316;-62
2022/04/10 02:08:07;;;;;;;9.70;6.60;;;;;;;1.28;70.73;99218.84;213798;1276;140507;-63
2022/04/10 02:13:09;;;;;;;9.60;6.90;;;;;;;1.21;70.71;99221.42;213432;1276;139496;-65
2022/04/10 02:18:13;;;;;;;8.60;4.90;;;;;;;1.17;70.66;99232.44;213297;1276;140206;-64
2022/04/10 02:23:15;;;;;;;8.20;4.10;;;;;;;1.16;71.06;99237.64;213712;1276;140857;-65
2022/04/10 02:28:17;;;;;;;7.80;3.70;;;;;;;1.16;70.99;99239.34;213410;1276;141340;-64
2022/04/10 02:33:20;;;;;;;8.40;5.30;;;;;;;1.14;71.19;99242.19;213287;1276;139998;-64
2022/04/10 02:38:23;;;;;;;6.20;4.80;;;;;;;1.13;71.35;99238.98;213221;1274;139595;-63
2022/04/10 02:43:27;;;;;;;4.30;3.00;;;;;;;1.12;71.50;99236.67;213053;1276;139913;-64
2022/04/10 02:48:29;;;;;;;7.00;3.90;;;;;;;1.07;71.58;99236.81;213815;1276;140238;-65
2022/04/10 02:53:33;;;;;;;9.70;5.20;;;;;;;1.05;71.95;99240.59;213182;1276;230123;-65
2022/04/10 02:58:36;;;;;;;6.50;4.20;;;;;;;1.04;72.11;99236.45;213485;1276;141164;-67
2022/04/10 03:03:39;;;;;;;9.00;3.20;;;;;;;1.04;72.08;99231.54;213409;1276;140673;-62
2022/04/10 03:08:45;;;;;;;7.50;4.60;;;;;;;1.01;71.91;99234.52;213279;1275;141309;-62
2022/04/10 03:13:47;;;;;;;8.30;4.70;;;;;;;0.96;72.21;99239.96;214116;1276;140869;-64
2022/04/10 03:18:51;;;;;;;6.10;4.70;;;;;;;0.90;72.01;99240.36;213343;1276;151568;-64
2022/04/10 03:23:53;;;;;;;10.30;4.00;;;;;;;0.89;72.35;99249.75;213828;1276;142056;-64
2022/04/10 03:28:56;;;;;;;8.00;3.30;;;;;;;0.88;72.28;99258.89;213918;1276;140856;-64
2022/04/10 03:33:58;;;;;;;6.20;3.30;;;;;;;0.88;72.36;99265.36;216012;1274;140009;-67
2022/04/10 03:39:00;;;;;;;9.80;3.60;;;;;;;0.89;72.46;99272.07;215315;1276;139094;-66
2022/04/10 03:44:04;;;;;;;9.40;4.60;;;;;;;0.97;72.96;99280.30;215361;1276;139818;-65
2022/04/10 03:49:08;;;;;;;4.90;3.50;;;;;;;1.06;72.47;99290.95;215115;1276;139450;-66
2022/04/10 03:54:11;;;;;;;4.10;3.40;;;;;;;1.15;72.62;99300.52;215633;1276;140202;-66
2022/04/10 03:59:15;;;;;;;5.70;3.20;;;;;;;1.24;72.77;99309.61;214154;1276;141804;-64
2022/04/10 04:04:17;;;;;;;14.20;5.70;;;;;;;1.31;73.03;99319.95;214587;1276;140597;-65
2022/04/10 04:09:19;;;;;;;6.50;3.10;;;;;;;1.37;72.96;99327.42;213782;1276;139123;-66
2022/04/10 04:14:22;;;;;;;5.50;3.30;;;;;;;1.46;73.20;99332.89;214218;1276;139491;-65
2022/04/10 04:19:24;;;;;;;4.30;3.30;;;;;;;1.55;73.11;99337.63;213138;1276;139630;-65
2022/04/10 04:24:26;;;;;;;6.30;3.40;;;;;;;1.65;73.17;99345.20;212975;1276;140332;-65
2022/04/10 04:29:28;;;;;;;3.80;2.90;;;;;;;1.71;73.03;99350.65;213537;1276;140465;-64
2022/04/10 04:34:30;;;;;;;5.70;4.30;;;;;;;1.69;72.94;99354.22;214803;1274;150090;-65
2022/04/10 04:39:32;;;;;;;5.70;3.20;;;;;;;1.69;73.20;99362.02;213812;1276;138693;-65
2022/04/10 04:44:34;;;;;;;2.60;2.30;;;;;;;1.79;73.03;99367.90;213244;1276;140952;-65
2022/04/10 04:49:37;;;;;;;4.40;3.40;;;;;;;1.95;73.25;99381.84;214001;1276;139582;-64
2022/04/10 04:54:40;;;;;;;5.50;3.20;;;;;;;2.12;73.03;99392.98;213133;1276;140728;-65
2022/04/10 04:59:42;;;;;;;4.90;3.60;;;;;;;2.29;72.65;99402.34;213313;1276;140941;-65
2022/04/10 05:04:45;;;;;;;5.20;4.00;;;;;;;2.40;72.73;99410.66;214147;1276;139795;-65
2022/04/10 05:09:50;;;;;;;5.10;3.40;;;;;;;2.58;72.44;99423.46;213367;1275;140536;-64
2022/04/10 05:14:54;;;;;;;8.90;4.60;;;;;;;2.74;72.40;99432.54;214592;1276;139722;-65
2022/04/10 05:19:58;;;;;;;3.40;2.70;;;;;;;2.89;72.29;99442.92;215494;1276;139364;-65
2022/04/10 05:25:02;;;;;;;5.60;3.50;;;;;;;3.09;72.14;99450.66;213117;1276;139793;-64
2022/04/10 05:30:05;;;;;;;6.10;3.00;;;;;;;3.20;71.99;99446.15;213088;1276;138891;-64
2022/04/10 05:35:09;;;;;;;5.30;3.20;;;;;;;3.29;71.69;99449.94;214028;1276;140774;-64
2022/04/10 05:40:13;;;;;;;5.20;3.80;;;;;;;3.66;71.78;99456.18;213236;1276;139380;-65
2022/04/10 05:45:16;;;;;;;3.60;2.70;;;;;;;3.98;71.61;99466.79;215513;1275;139278;-68
2022/04/10 05:50:18;;;;;;;7.90;4.50;;;;;;;3.99;71.39;99474.40;215968;1276;139733;-67
2022/04/10 05:55:24;;;;;;;4.10;3.30;;;;;;;3.92;71.12;99479.09;214815;1276;140418;-65
2022/04/10 06:00:28;;;;;;;5.40;2.90;;;;;;;3.88;71.03;99478.86;215778;1276;139973;-67
2022/04/10 06:05:31;;;;;;;5.30;3.90;;;;;;;3.81;70.77;99483.33;213461;1276;140979;-64
2022/04/10 06:10:34;;;;;;;6.80;4.20;;;;;;;3.75;70.84;99486.18;213250;1276;141467;-63
2022/04/10 06:15:40;;;;;;;4.20;3.80;;;;;;;3.69;70.73;99479.15;214315;1276;139144;-65
2022/04/10 06:20:43;;;;;;;8.80;3.90;;;;;;;3.67;70.90;99480.27;214350;1276;140402;-64
2022/04/10 06:25:47;;;;;;;9.20;5.50;;;;;;;3.65;70.79;99478.80;213721;1276;139873;-65
2022/04/10 06:30:50;;;;;;;8.50;4.60;;;;;;;3.61;70.67;99482.34;213887;1276;140575;-65
2022/04/10 06:35:56;;;;;;;9.30;5.00;;;;;;;3.58;70.62;99492.40;213599;1275;140000;-66
2022/04/10 06:41:01;;;;;;;6.30;4.90;;;;;;;3.58;70.56;99492.81;213034;1276;163521;-65
2022/04/10 06:46:08;;;;;;;8.00;4.90;;;;;;;3.60;70.42;99499.92;213439;1275;140533;-65
2022/04/10 06:51:11;;;;;;;8.80;6.20;;;;;;;3.57;70.60;99499.38;213521;1276;140409;-65
2022/04/10 06:56:15;;;;;;;10.60;6.40;;;;;;;3.52;70.35;99503.92;213745;1276;141406;-65
2022/04/10 07:01:18;;;;;;;9.00;5.60;;;;;;;3.48;70.52;99510.59;213784;1276;139303;-66
2022/04/10 07:06:21;;;;;;;9.20;5.30;;;;;;;3.43;70.38;99511.17;214006;1276;140186;-66
2022/04/10 07:11:24;;;;;;;10.30;9.10;;;;;;;3.47;70.27;99514.03;213710;1276;141907;-66
2022/04/10 07:16:27;;;;;;;12.70;6.30;;;;;;;3.44;70.14;99515.80;213408;1276;140035;-65
2022/04/10 07:27:00;;;;;;;8.30;7.40;;;;;;;3.49;70.32;99528.03;214074;1276;141362;-65
2022/04/10 07:32:04;;;;;;;9.30;6.00;;;;;;;3.57;70.23;99533.80;214558;1276;142059;-65
2022/04/10 07:37:07;;;;;;;12.40;6.50;;;;;;;3.66;70.00;99537.73;214366;1276;139564;-66
2022/04/10 07:42:11;;;;;;;13.90;8.60;;;;;;;3.70;70.17;99541.23;214467;1276;140071;-66
2022/04/10 07:47:35;;;;;;;6.20;5.50;;;;;;;3.87;69.96;99545.19;214836;1275;141180;-66
2022/04/10 07:52:38;;;;;;;9.40;6.70;;;;;;;3.93;69.62;99551.47;215805;1276;139625;-66
2022/04/10 07:57:40;;;;;;;8.90;5.90;;;;;;;4.03;69.47;99549.31;215757;1276;140382;-66
2022/04/10 08:02:49;;;;;;;7.50;6.80;;;;;;;4.34;69.09;99550.14;215876;1274;140279;-66
2022/04/10 08:07:52;;;;;;;10.40;4.80;;;;;;;4.71;68.71;99553.30;213854;1276;140410;-66
2022/04/10 08:12:54;;;;;;;10.30;5.50;;;;;;;4.92;68.43;99550.23;215301;1276;141248;-65
2022/04/10 08:17:58;;;;;;;10.90;6.40;;;;;;;4.93;67.75;99559.26;215916;1276;140290;-66
2022/04/10 08:23:03;;;;;;;14.70;4.70;;;;;;;4.89;67.76;99567.67;213359;1276;140835;-66
2022/04/10 08:28:06;;;;;;;10.50;4.60;;;;;;;4.96;67.59;99573.48;213444;1276;140327;-65
2022/04/10 08:33:09;;;;;;;16.00;5.30;;;;;;;4.97;67.54;99578.92;214168;1276;140654;-65
2022/04/10 08:38:12;;;;;;;7.80;4.00;;;;;;;4.96;67.13;99589.62;213364;1276;141424;-65
2022/04/10 08:43:18;;;;;;;7.40;5.10;;;;;;;4.87;66.88;99591.80;213624;1275;151917;-65
2022/04/10 08:48:24;;;;;;;6.80;4.50;;;;;;;4.92;66.83;99588.84;213498;1276;140604;-65
2022/04/10 08:53:29;;;;;;;8.60;4.60;;;;;;;5.00;66.82;99586.66;213173;1276;141190;-65
2022/04/10 08:58:35;;;;;;;4.20;3.30;;;;;;;5.15;66.58;99593.66;213292;1276;141415;-65
2022/04/10 09:03:38;;;;;;;6.50;4.80;;;;;;;5.40;66.74;99597.89;213202;1276;140855;-65
2022/04/10 09:08:43;;;;;;;4.00;3.30;;;;;;;5.64;66.53;99592.20;213527;1276;140565;-65
2022/04/10 09:13:48;;;;;;;8.00;3.90;;;;;;;5.93;65.80;99590.94;213178;1276;140509;-66
2022/04/10 09:19:00;;;;;;;7.90;4.80;;;;;;;6.38;66.02;99592.77;213793;1276;140171;-66
2022/04/10 09:24:08;;;;;;;8.80;4.40;;;;;;;6.66;64.71;99594.59;214234;1276;139948;-66
2022/04/10 09:29:11;;;;;;;4.40;3.20;;;;;;;6.39;64.15;99598.91;214387;1276;140567;-67
2022/04/10 09:34:18;;;;;;;4.10;3.10;;;;;;;6.26;64.11;99602.71;214699;1276;140101;-66
2022/04/10 09:39:41;;;;;;;8.90;3.80;;;;;;;6.53;64.21;99597.10;214861;1276;140405;-67
2022/04/10 09:44:44;;;;;;;6.10;4.00;;;;;;;6.80;63.33;99599.66;214000;1276;141030;-67
2022/04/10 09:49:48;;;;;;;10.70;4.00;;;;;;;6.72;62.54;99605.55;214073;1276;142172;-66
2022/04/10 09:54:50;;;;;;;13.60;4.90;;;;;;;6.72;62.69;99607.91;213495;1275;141965;-66
2022/04/10 09:59:55;;;;;;;9.70;3.40;;;;;;;7.03;62.76;99603.02;215373;1276;140523;-66
2022/04/10 10:04:58;;;;;;;4.70;3.10;;;;;;;7.30;61.30;99601.90;215545;1275;140167;-67
2022/04/10 10:10:01;;;;;;;7.20;2.70;;;;;;;7.24;61.02;99600.34;215854;1276;139878;-67
2022/04/10 10:15:05;;;;;;;3.30;2.10;;;;;;;6.94;60.12;99604.63;214825;1276;161446;-66
2022/04/10 10:20:10;;;;;;;8.10;2.80;;;;;;;6.89;60.57;99604.42;215289;1276;140772;-67
2022/04/10 10:25:24;;;;;;;4.40;3.00;;;;;;;6.98;60.11;99606.90;215178;1276;140632;-67
2022/04/10 10:30:52;;;;;;;6.70;3.20;;;;;;;7.00;60.06;99612.55;214452;1275;140355;-67
2022/04/10 10:36:00;;;;;;;4.70;2.90;;;;;;;7.32;60.08;99607.89;213666;1277;140694;-67
2022/04/10 10:41:29;;;;;;;5.80;2.60;;;;;;;7.55;59.57;99606.11;213513;1276;140641;-67
2022/04/10 10:46:35;;;;;;;5.40;3.50;;;;;;;7.56;59.40;99605.53;214324;1276;141143;-67
2022/04/10 10:51:45;;;;;;;6.60;3.50;;;;;;;7.63;59.17;99610.16;213013;1277;700214;-67
2022/04/10 10:56:50;;;;;;;8.10;3.50;;;;;;;7.58;58.88;99608.13;214455;1275;139869;-69
2022/04/10 11:02:11;;;;;;;9.80;4.70;;;;;;;7.48;59.04;99616.45;213927;1276;140081;-67
2022/04/10 11:07:41;;;;;;;8.80;4.50;;;;;;;7.31;59.15;99620.27;215146;1276;138864;-66
2022/04/10 11:12:54;;;;;;;8.80;4.20;;;;;;;7.13;58.81;99622.55;213873;1276;139571;-66
2022/04/10 11:18:23;;;;;;;4.10;3.10;;;;;;;7.07;59.12;99624.02;213379;1276;140946;-67
2022/04/10 11:23:41;;;;;;;9.70;4.00;;;;;;;7.14;58.67;99621.98;213578;1276;140268;-67
2022/04/10 11:29:01;;;;;;;12.90;4.00;;;;;;;6.98;58.31;99624.17;213795;1276;141477;-67
2022/04/10 11:34:21;;;;;;;8.00;5.20;;;;;;;6.83;58.80;99628.30;213333;1274;140205;-67
2022/04/10 11:39:33;;;;;;;8.50;4.80;;;;;;;6.74;58.38;99636.55;213620;1275;207770;-66
2022/04/10 11:44:36;;;;;;;4.80;3.70;;;;;;;6.66;58.53;99631.66;213144;1276;142820;-64
2022/04/10 11:49:48;;;;;;;8.90;4.40;;;;;;;6.71;59.12;99627.40;214406;1276;140392;-67
2022/04/10 11:54:53;;;;;;;8.10;4.20;;;;;;;7.12;58.89;99627.38;214443;1276;139563;-67
2022/04/10 11:59:56;;;;;;;9.20;3.10;;;;;;;7.46;58.75;99622.96;215203;1276;139237;-67
2022/04/10 12:05:01;;;;;;;2.90;2.70;;;;;;;7.43;58.01;99630.32;215712;1276;141092;-67
2022/04/10 12:10:04;;;;;;;5.50;3.50;;;;;;;7.30;57.90;99629.45;214704;1276;139492;-68
2022/04/10 12:15:16;;;;;;;5.60;3.50;;;;;;;7.21;57.90;99629.86;215887;1276;140678;-70
2022/04/10 12:20:22;;;;;;;2.90;2.60;;;;;;;7.55;57.90;99629.07;215475;1274;139919;-67
2022/04/10 12:25:27;;;;;;;7.50;3.50;;;;;;;7.91;57.76;99623.40;216031;1276;140077;-70
2022/04/10 12:30:30;;;;;;;2.70;2.30;;;;;;;8.09;57.12;99622.35;215309;1276;139698;-68
2022/04/10 12:35:40;;;;;;;4.90;2.70;;;;;;;8.09;56.22;99629.25;215401;1275;139224;-67
2022/04/10 12:40:44;;;;;;;6.80;2.60;;;;;;;7.95;55.74;99626.98;215101;1276;140451;-67
2022/04/10 12:45:51;;;;;;;2.50;2.00;;;;;;;8.05;55.56;99626.05;214293;1277;140221;-67
2022/04/10 12:51:16;;;;;;;3.20;2.40;;;;;;;8.30;55.38;99622.96;213532;1276;140699;-67
2022/04/10 12:56:21;;;;;;;7.70;3.50;;;;;;;8.40;54.71;99623.64;212844;1277;140128;-67
2022/04/10 13:01:32;;;;;;;5.50;2.10;;;;;;;8.41;54.77;99627.14;213867;1276;140345;-67
2022/04/10 13:06:49;;;;;;;2.80;2.40;;;;;;;8.49;54.14;99624.85;212923;1277;140296;-65
2022/04/10 13:11:52;;;;;;;8.20;3.40;;;;;;;8.57;54.25;99620.97;212790;1277;139545;-67
2022/04/10 13:17:04;;;;;;;34.70;15.10;;;;;;;8.68;54.14;99619.73;213773;1276;140171;-66
2022/04/10 13:22:06;;;;;;;17.10;11.50;;;;;;;8.99;54.30;99621.50;213861;1277;140993;-72
2022/04/10 13:27:17;;;;;;;6.10;3.30;;;;;;;9.23;53.83;99618.80;213794;1277;140901;-68
2022/04/10 13:32:20;;;;;;;6.30;5.50;;;;;;;9.27;53.19;99619.52;213337;1277;140896;-68
2022/04/10 13:37:22;;;;;;;3.30;2.70;;;;;;;9.12;53.00;99628.02;214181;1277;139231;-65
2022/04/10 13:42:25;;;;;;;5.20;2.80;;;;;;;9.06;53.08;99627.91;213797;1277;140065;-67
2022/04/10 13:47:28;;;;;;;4.40;3.40;;;;;;;8.95;52.93;99634.73;214192;1277;141011;-66
2022/04/10 13:52:31;;;;;;;4.70;2.20;;;;;;;8.78;52.72;99638.94;213612;1276;139472;-65
2022/04/10 13:57:35;;;;;;;4.10;3.00;;;;;;;8.69;52.79;99638.73;212832;1277;139559;-66
2022/04/10 14:02:37;;;;;;;5.50;2.40;;;;;;;8.59;52.74;99645.23;215427;1276;139820;-66
2022/04/10 14:07:40;;;;;;;3.40;2.50;;;;;;;8.63;52.82;99644.08;215067;1277;139890;-69
2022/04/10 14:12:45;;;;;;;3.50;2.10;;;;;;;8.56;52.47;99638.00;215849;1276;138911;-66
2022/04/10 14:17:50;;;;;;;3.40;1.90;;;;;;;8.54;52.47;99639.83;215559;1277;139847;-66
2022/04/10 14:22:52;;;;;;;4.30;3.10;;;;;;;8.47;52.42;99642.16;215755;1276;141428;-68
2022/04/10 14:27:55;;;;;;;2.20;1.90;;;;;;;8.46;52.71;99640.66;216018;1276;139598;-67
2022/04/10 14:32:58;;;;;;;4.70;2.30;;;;;;;8.49;52.39;99643.49;215819;1276;141141;-67
2022/04/10 14:38:00;;;;;;;4.40;2.70;;;;;;;8.61;52.65;99647.33;215050;1276;139710;-68
2022/04/10 14:43:03;;;;;;;8.70;4.50;;;;;;;8.68;52.17;99647.20;214827;1277;139749;-67
2022/04/10 14:48:06;;;;;;;4.80;3.30;;;;;;;8.76;52.49;99637.33;214344;1276;139766;-65
2022/04/10 14:53:10;;;;;;;2.60;2.30;;;;;;;8.74;52.19;99647.48;213635;1276;139265;-66
2022/04/10 14:58:14;;;;;;;4.30;3.30;;;;;;;8.52;51.98;99651.70;215121;1276;141314;-65
2022/04/10 15:03:18;;;;;;;5.30;2.70;;;;;;;8.45;52.50;99651.30;213838;1276;139948;-67
2022/04/10 15:08:25;;;;;;;4.30;2.30;;;;;;;8.50;52.31;99651.93;213255;1276;141108;-67
2022/04/10 15:13:31;;;;;;;2.70;1.90;;;;;;;8.50;52.43;99650.91;213321;1276;139767;-66
2022/04/10 15:18:35;;;;;;;4.00;1.90;;;;;;;8.57;52.81;99648.23;213784;1276;139977;-65
2022/04/10 15:23:40;;;;;;;6.70;3.20;;;;;;;8.50;52.26;99642.42;212977;1276;139458;-66
2022/04/10 15:28:43;;;;;;;5.00;2.30;;;;;;;8.28;52.33;99653.20;212825;1276;140812;-66
2022/04/10 15:33:46;;;;;;;3.20;2.80;;;;;;;8.12;52.45;99653.36;214568;1276;139839;-65
2022/04/10 15:38:50;;;;;;;3.70;2.00;;;;;;;8.15;52.90;99656.72;213056;1276;138674;-64
2022/04/10 15:43:53;;;;;;;8.20;3.00;;;;;;;8.07;52.84;99654.75;213221;1276;138751;-65
2022/04/10 15:48:56;;;;;;;7.90;4.60;;;;;;;7.97;52.71;99654.70;214002;1276;140681;-65
2022/04/10 15:54:00;;;;;;;4.30;3.20;;;;;;;8.05;52.90;99653.34;213199;1276;140178;-65
2022/04/10 15:59:03;;;;;;;9.60;3.90;;;;;;;8.13;52.55;99644.93;213069;1276;140425;-65
2022/04/10 16:04:05;;;;;;;4.10;2.10;;;;;;;7.94;52.59;99652.91;215264;1276;143180;-66
2022/04/10 16:09:11;;;;;;;1.20;1.20;;;;;;;7.71;52.76;99657.88;214472;1276;139147;-67
2022/04/10 16:14:14;;;;;;;5.10;2.30;;;;;;;7.58;52.67;99661.39;215680;1275;139880;-68
2022/04/10 16:19:17;;;;;;;3.80;3.00;;;;;;;7.50;53.01;99659.92;215917;1276;141100;-68
2022/04/10 16:24:22;;;;;;;6.40;3.50;;;;;;;7.52;52.94;99662.95;213911;1276;140675;-66
2022/04/10 16:30:11;;;;;;;2.30;2.10;;;;;;;7.45;53.12;99665.92;213236;1276;161143;-65
2022/04/10 16:34:47;;;;;;;5.20;3.10;;;;;;;7.23;53.04;99663.40;215903;1276;140036;-66
2022/04/10 16:39:50;;;;;;;3.10;2.00;;;;;;;7.01;52.73;99668.80;213258;1276;140374;-66
2022/04/10 16:44:53;;;;;;;2.20;1.60;;;;;;;6.81;52.81;99671.86;215758;1276;141334;-66
2022/04/10 16:49:56;;;;;;;3.70;2.20;;;;;;;6.60;52.72;99675.78;215991;1276;140428;-65
2022/04/10 16:55:02;;;;;;;6.90;2.60;;;;;;;6.45;53.50;99683.48;214995;1276;140372;-64
2022/04/10 17:00:09;;;;;;;5.60;2.70;;;;;;;6.30;53.05;99683.05;214358;1275;139921;-69
2022/04/10 17:05:12;;;;;;;6.50;2.00;;;;;;;6.20;53.58;99684.46;213390;1276;141697;-64
2022/04/10 17:10:15;;;;;;;7.60;3.40;;;;;;;6.12;54.11;99688.79;213261;1276;140947;-64
2022/04/10 17:15:17;;;;;;;5.50;2.50;;;;;;;6.03;54.63;99695.17;213057;1276;140942;-64
2022/04/10 17:20:20;;;;;;;8.50;4.80;;;;;;;5.95;55.38;99694.73;214403;1276;140962;-64
2022/04/10 17:25:22;;;;;;;11.30;3.90;;;;;;;5.89;56.13;99692.32;213037;1276;139415;-62
2022/04/10 17:30:29;;;;;;;6.30;2.30;;;;;;;5.81;56.00;99706.30;213018;1276;151069;-67
2022/04/10 17:35:33;;;;;;;6.30;3.20;;;;;;;5.59;56.59;99717.78;212999;1276;140984;-64
2022/04/10 17:40:36;;;;;;;4.00;3.40;;;;;;;5.37;57.48;99740.54;213104;1276;139713;-64
2022/04/10 17:45:40;;;;;;;3.50;2.30;;;;;;;5.11;58.28;99760.20;213872;1275;142114;-66
2022/04/10 17:50:43;;;;;;;3.60;2.70;;;;;;;4.92;59.60;99769.84;213920;1276;143965;-66
2022/04/10 17:55:46;;;;;;;4.60;2.40;;;;;;;4.72;60.42;99772.95;213020;1276;231569;-65
2022/04/10 18:00:49;;;;;;;2.00;1.90;;;;;;;4.53;61.16;99770.02;212939;1276;144335;-65
2022/04/10 18:05:52;;;;;;;7.30;5.00;;;;;;;4.41;61.82;99769.83;213894;1276;139833;-65
2022/04/10 18:10:57;;;;;;;8.60;3.80;;;;;;;4.39;62.26;99773.06;214317;1276;163416;-66
2022/04/10 18:16:00;;;;;;;9.00;5.80;;;;;;;4.38;62.58;99773.90;213143;1276;141456;-65
2022/04/10 18:21:04;;;;;;;5.50;3.00;;;;;;;4.37;63.06;99776.46;213239;1276;140836;-65
2022/04/10 18:26:12;;;;;;;3.60;2.60;;;;;;;4.30;63.40;99778.04;215881;1276;140470;-68
2022/04/10 18:31:16;;;;;;;5.20;3.40;;;;;;;4.22;63.92;99783.15;213812;1276;140557;-66
2022/04/10 18:36:19;;;;;;;6.50;3.50;;;;;;;4.16;64.15;99790.94;215619;1276;140683;-67
2022/04/10 18:41:22;;;;;;;7.00;4.40;;;;;;;4.06;64.14;99804.52;215707;1276;141055;-67
2022/04/10 18:46:28;;;;;;;8.10;3.70;;;;;;;3.99;64.45;99809.09;216093;1275;140462;-68
2022/04/10 18:51:32;;;;;;;6.10;4.00;;;;;;;3.93;64.72;99811.02;215774;1276;141162;-68
2022/04/10 18:56:38;;;;;;;6.40;4.20;;;;;;;3.86;64.85;99817.96;215731;1276;140929;-67
2022/04/10 19:01:41;;;;;;;7.00;4.90;;;;;;;3.75;65.11;99817.44;213385;1276;139785;-65
2022/04/10 19:06:47;;;;;;;8.20;4.60;;;;;;;3.62;65.23;99821.67;214775;1276;140060;-65
2022/04/10 19:11:50;;;;;;;7.70;3.80;;;;;;;3.47;65.75;99830.82;213934;1276;141591;-67
2022/04/10 19:16:54;;;;;;;7.10;4.00;;;;;;;3.28;65.66;99832.73;213081;1276;140071;-64
2022/04/10 19:21:57;;;;;;;8.70;4.60;;;;;;;3.10;66.10;99836.89;213237;1276;140638;-65
2022/04/10 19:27:01;;;;;;;7.80;4.10;;;;;;;2.93;66.07;99843.61;213375;1276;141416;-66
2022/04/10 19:32:05;;;;;;;8.10;5.50;;;;;;;2.82;67.04;99843.66;213932;1274;140603;-63
2022/04/10 19:37:08;;;;;;;6.10;5.10;;;;;;;2.82;67.15;99846.96;213646;1276;139713;-64
2022/04/10 19:42:13;;;;;;;6.00;4.80;;;;;;;2.78;67.73;99851.70;213521;1276;140897;-64
2022/04/10 19:47:19;;;;;;;5.60;4.80;;;;;;;2.75;67.79;99858.27;214225;1274;139057;-67
2022/04/10 19:52:21;;;;;;;8.00;5.30;;;;;;;2.73;67.85;99856.09;214075;1275;139985;-65
2022/04/10 19:57:30;;;;;;;6.70;4.90;;;;;;;2.72;67.85;99857.05;213481;1276;141472;-64
2022/04/10 20:02:34;;;;;;;12.20;5.80;;;;;;;2.60;67.70;99855.45;213946;1275;140320;-63
2022/04/10 20:07:38;;;;;;;7.80;4.50;;;;;;;2.47;68.20;99854.11;214550;1276;202870;-65
2022/04/10 20:12:40;;;;;;;9.60;5.70;;;;;;;2.39;68.33;99855.31;213170;1276;152209;-67
2022/04/10 20:17:43;;;;;;;8.50;6.20;;;;;;;2.30;68.83;99856.17;213335;1276;140973;-64
2022/04/10 20:22:46;;;;;;;7.70;5.80;;;;;;;2.19;68.69;99853.67;214685;1275;139925;-64
2022/04/10 20:27:49;;;;;;;9.60;4.90;;;;;;;2.05;68.77;99856.06;213389;1276;163185;-64
2022/04/10 20:32:52;;;;;;;7.40;5.10;;;;;;;1.93;68.66;99864.70;213191;1276;142591;-64
2022/04/10 20:37:55;;;;;;;8.60;4.60;;;;;;;1.78;68.85;99860.12;215826;1276;140764;-65
2022/04/10 20:42:58;;;;;;;12.70;6.90;;;;;;;1.66;68.90;99866.88;215294;1276;140293;-64
2022/04/10 20:48:01;;;;;;;10.90;5.00;;;;;;;1.52;69.23;99870.30;215628;1276;139884;-65
2022/04/10 20:53:04;;;;;;;10.20;6.30;;;;;;;1.41;69.25;99874.66;215739;1276;140016;-65
2022/04/10 20:58:09;;;;;;;5.60;4.70;;;;;;;1.33;69.48;99871.93;215707;1276;139622;-65
2022/04/10 21:03:12;;;;;;;11.60;6.70;;;;;;;1.25;69.78;99869.70;214873;1276;140789;-66
2022/04/10 21:08:14;;;;;;;12.90;7.20;;;;;;;1.18;69.97;99871.98;214904;1276;140898;-64
2022/04/10 21:13:18;;;;;;;11.10;6.90;;;;;;;1.20;70.21;99874.56;214400;1275;140813;-63
2022/04/10 21:18:21;;;;;;;13.30;7.80;;;;;;;1.24;70.36;99874.30;214350;1276;141832;-64
2022/04/10 21:23:24;;;;;;;11.50;7.90;;;;;;;1.24;70.55;99878.01;214568;1276;140675;-64
2022/04/10 21:28:27;;;;;;;10.00;7.60;;;;;;;1.26;70.79;99881.64;213067;1276;140299;-65
2022/04/10 21:33:30;;;;;;;15.10;7.10;;;;;;;1.26;71.49;99882.10;213566;1276;153203;-65
2022/04/10 21:38:32;;;;;;;10.90;6.60;;;;;;;1.32;71.78;99880.73;213632;1276;140132;-64
2022/04/10 21:43:34;;;;;;;13.40;7.80;;;;;;;1.39;72.17;99883.27;213473;1276;141000;-63
2022/04/10 21:48:37;;;;;;;10.20;7.00;;;;;;;1.51;72.36;99878.90;213975;1274;141667;-64
2022/04/10 21:53:40;;;;;;;18.40;7.00;;;;;;;1.61;72.32;99882.31;213404;1276;142731;-64
2022/04/10 21:58:44;;;;;;;10.80;6.40;;;;;;;1.71;72.63;99880.42;213292;1276;140403;-64
2022/04/10 22:03:48;;;;;;;6.50;5.50;;;;;;;1.79;72.85;99881.96;214078;1276;140231;-64
2022/04/10 22:08:50;;;;;;;11.20;5.20;;;;;;;1.81;72.72;99884.80;213610;1276;140407;-63
2022/04/10 22:13:53;;;;;;;11.70;7.20;;;;;;;1.80;72.90;99888.66;214434;1276;140827;-64
2022/04/10 22:18:56;;;;;;;10.80;6.60;;;;;;;1.76;72.34;99890.71;214057;1276;141454;-65
2022/04/10 22:23:58;;;;;;;11.20;6.50;;;;;;;1.74;72.32;99884.77;213635;1276;151188;-63
2022/04/10 22:29:00;;;;;;;15.50;7.20;;;;;;;1.73;72.41;99889.61;214525;1276;142409;-63
2022/04/10 22:34:02;;;;;;;14.50;7.60;;;;;;;1.70;72.43;99891.41;214732;1276;141450;-63
2022/04/10 22:39:04;;;;;;;8.00;5.90;;;;;;;1.64;72.48;99890.61;213455;1276;142569;-66
2022/04/10 22:44:07;;;;;;;8.30;6.60;;;;;;;1.52;72.81;99889.73;214897;1275;140376;-66
2022/04/10 22:49:09;;;;;;;9.50;5.90;;;;;;;1.46;72.60;99895.33;212401;1276;1492568;-64
2022/04/10 22:54:12;;;;;;;12.70;6.90;;;;;;;1.44;73.08;99892.89;215251;1276;140430;-65
2022/04/10 22:59:14;;;;;;;11.20;6.30;;;;;;;1.38;72.58;99897.39;215715;1276;140060;-65
2022/04/10 23:04:16;;;;;;;10.70;6.10;;;;;;;1.33;72.72;99897.05;216078;1276;139117;-64
2022/04/10 23:09:20;;;;;;;11.70;7.10;;;;;;;1.29;72.35;99898.99;215298;1276;139042;-64
2022/04/10 23:14:23;;;;;;;8.60;6.80;;;;;;;1.16;72.42;99897.95;215561;1276;139552;-65
2022/04/10 23:19:26;;;;;;;8.70;5.00;;;;;;;1.07;72.43;99901.39;214299;1276;140588;-63
2022/04/10 23:24:28;;;;;;;7.10;4.60;;;;;;;1.05;72.41;99898.73;214505;1276;142068;-64
2022/04/10 23:29:31;;;;;;;11.40;5.20;;;;;;;1.03;72.81;99901.16;214934;1275;140096;-64
2022/04/10 23:34:37;;;;;;;10.90;6.20;;;;;;;1.00;73.09;99904.42;213615;1277;140271;-63
2022/04/10 23:39:40;;;;;;;10.00;5.40;;;;;;;0.96;73.04;99903.35;213846;1275;140873;-64